sensor_id;sensor_type;location;lat;lon;timestamp;pressure;altitude;pressure_sealevel;temperature;humidity
46946;BME280;32679;40.810;14.498;2023-03-31T00:02:03;100806.91;;;10.24;100.00
46946;BME280;32679;40.810;14.498;2023-03-31T00:04:41;100813.41;;;10.28;100.00
46946;BME280;32679;40.810;14.498;2023-03-31T00:07:17;100815.72;;;10.26;100.00
46946;BME280;32679;40.810;14.498;2023-03-31T00:09:51;100809.88;;;10.19;100.00
46946;BME280;32679;40.810;14.498;2023-03-31T00:12:20;100807.53;;;10.09;100.00
46946;BME280;32679;40.810;14.498;2023-03-31T00:14:48;100811.34;;;10.04;100.00
46946;BME280;32679;40.810;14.498;2023-03-31T00:17:16;100803.81;;;10.05;100.00
46946;BME280;32679;40.810;14.498;2023-03-31T00:19:46;100811.13;;;10.09;100.00
46946;BME280;32679;40.810;14.498;2023-03-31T00:22:15;100805.72;;;10.13;100.00
46946;BME280;32679;40.810;14.498;2023-03-31T00:24:43;100821.81;;;10.07;100.00
46946;BME280;32679;40.810;14.498;2023-03-31T00:27:11;100819.56;;;10.01;100.00
46946;BME280;32679;40.810;14.498;2023-03-31T00:29:39;100814.13;;;10.04;100.00
46946;BME280;32679;40.810;14.498;2023-03-31T00:32:08;100808.44;;;10.01;100.00
46946;BME280;32679;40.810;14.498;2023-03-31T00:34:39;100809.00;;;9.94;100.00
46946;BME280;32679;40.810;14.498;2023-03-31T00:37:05;100802.06;;;10.00;100.00
46946;BME280;32679;40.810;14.498;2023-03-31T00:39:34;100809.16;;;9.97;100.00
46946;BME280;32679;40.810;14.498;2023-03-31T00:42:04;100799.28;;;9.88;100.00
46946;BME280;32679;40.810;14.498;2023-03-31T00:45:06;100792.34;;;9.94;100.00
46946;BME280;32679;40.810;14.498;2023-03-31T00:47:28;100800.22;;;9.92;100.00
46946;BME280;32679;40.810;14.498;2023-03-31T00:49:55;100787.59;;;9.94;100.00
46946;BME280;32679;40.810;14.498;2023-03-31T00:52:27;100791.16;;;9.95;100.00
46946;BME280;32679;40.810;14.498;2023-03-31T00:55:02;100789.63;;;9.85;100.00
46946;BME280;32679;40.810;14.498;2023-03-31T00:57:32;100790.56;;;9.89;100.00
46946;BME280;32679;40.810;14.498;2023-03-31T01:00:05;100790.34;;;9.82;100.00
46946;BME280;32679;40.810;14.498;2023-03-31T01:02:44;100784.53;;;9.75;100.00
46946;BME280;32679;40.810;14.498;2023-03-31T01:05:21;100788.44;;;9.74;100.00
46946;BME280;32679;40.810;14.498;2023-03-31T01:07:48;100782.22;;;9.77;100.00
46946;BME280;32679;40.810;14.498;2023-03-31T01:10:20;100782.00;;;9.82;100.00
46946;BME280;32679;40.810;14.498;2023-03-31T01:12:52;100779.47;;;9.89;100.00
46946;BME280;32679;40.810;14.498;2023-03-31T01:15:20;100780.69;;;9.80;100.00
46946;BME280;32679;40.810;14.498;2023-03-31T01:17:51;100775.03;;;9.76;100.00
46946;BME280;32679;40.810;14.498;2023-03-31T01:26:29;100768.31;;;9.77;100.00
46946;BME280;32679;40.810;14.498;2023-03-31T01:38:00;100758.59;;;9.71;100.00
46946;BME280;32679;40.810;14.498;2023-03-31T01:43:32;100747.56;;;9.75;100.00
46946;BME280;32679;40.810;14.498;2023-03-31T01:46:20;100743.97;;;9.74;100.00
46946;BME280;32679;40.810;14.498;2023-03-31T01:51:49;100749.16;;;9.63;100.00
46946;BME280;32679;40.810;14.498;2023-03-31T01:57:02;100727.75;;;9.64;100.00
46946;BME280;32679;40.810;14.498;2023-03-31T01:59:38;100716.19;;;9.74;100.00
46946;BME280;32679;40.810;14.498;2023-03-31T02:02:19;100707.41;;;9.72;100.00
46946;BME280;32679;40.810;14.498;2023-03-31T02:04:51;100713.78;;;9.73;100.00
46946;BME280;32679;40.810;14.498;2023-03-31T02:07:21;100708.28;;;9.64;100.00
46946;BME280;32679;40.810;14.498;2023-03-31T02:09:59;100706.22;;;9.61;100.00
46946;BME280;32679;40.810;14.498;2023-03-31T02:12:30;100702.50;;;9.57;100.00
46946;BME280;32679;40.810;14.498;2023-03-31T02:14:57;100707.03;;;9.61;100.00
46946;BME280;32679;40.810;14.498;2023-03-31T02:17:27;100696.06;;;9.65;100.00
46946;BME280;32679;40.810;14.498;2023-03-31T02:20:09;100686.91;;;9.64;100.00
46946;BME280;32679;40.810;14.498;2023-03-31T02:22:38;100666.03;;;9.58;100.00
46946;BME280;32679;40.810;14.498;2023-03-31T02:25:12;100651.25;;;9.66;100.00
46946;BME280;32679;40.810;14.498;2023-03-31T02:27:42;100643.72;;;9.67;100.00
46946;BME280;32679;40.810;14.498;2023-03-31T02:30:13;100648.81;;;9.65;100.00
46946;BME280;32679;40.810;14.498;2023-03-31T02:32:43;100645.34;;;9.68;100.00
46946;BME280;32679;40.810;14.498;2023-03-31T02:35:19;100642.53;;;9.43;100.00
46946;BME280;32679;40.810;14.498;2023-03-31T02:37:46;100638.56;;;9.32;100.00
46946;BME280;32679;40.810;14.498;2023-03-31T02:40:20;100645.75;;;9.33;100.00
46946;BME280;32679;40.810;14.498;2023-03-31T02:42:49;100634.63;;;9.33;100.00
46946;BME280;32679;40.810;14.498;2023-03-31T02:45:49;100642.63;;;9.35;100.00
46946;BME280;32679;40.810;14.498;2023-03-31T02:48:27;100604.38;;;9.07;100.00
46946;BME280;32679;40.810;14.498;2023-03-31T02:59:13;100629.13;;;9.12;100.00
46946;BME280;32679;40.810;14.498;2023-03-31T03:04:49;100617.47;;;9.19;100.00
46946;BME280;32679;40.810;14.498;2023-03-31T03:07:46;100619.88;;;9.08;100.00
46946;BME280;32679;40.810;14.498;2023-03-31T03:17:57;100611.56;;;8.87;100.00
46946;BME280;32679;40.810;14.498;2023-03-31T03:20:24;100609.00;;;8.82;100.00
46946;BME280;32679;40.810;14.498;2023-03-31T03:22:52;100599.28;;;8.76;100.00
46946;BME280;32679;40.810;14.498;2023-03-31T03:25:22;100606.34;;;8.74;100.00
46946;BME280;32679;40.810;14.498;2023-03-31T03:27:50;100600.91;;;8.77;100.00
46946;BME280;32679;40.810;14.498;2023-03-31T03:30:17;100595.63;;;8.84;100.00
46946;BME280;32679;40.810;14.498;2023-03-31T03:32:43;100592.97;;;8.88;100.00
46946;BME280;32679;40.810;14.498;2023-03-31T03:35:09;100592.28;;;8.91;100.00
46946;BME280;32679;40.810;14.498;2023-03-31T03:37:35;100588.56;;;8.87;100.00
46946;BME280;32679;40.810;14.498;2023-03-31T03:40:04;100585.06;;;8.78;100.00
46946;BME280;32679;40.810;14.498;2023-03-31T03:42:37;100586.81;;;8.82;100.00
46946;BME280;32679;40.810;14.498;2023-03-31T03:45:06;100570.97;;;8.83;100.00
46946;BME280;32679;40.810;14.498;2023-03-31T03:47:32;100569.72;;;8.80;100.00
46946;BME280;32679;40.810;14.498;2023-03-31T03:50:03;100568.34;;;8.86;100.00
46946;BME280;32679;40.810;14.498;2023-03-31T03:52:32;100564.75;;;8.86;100.00
46946;BME280;32679;40.810;14.498;2023-03-31T03:55:02;100562.34;;;8.84;100.00
46946;BME280;32679;40.810;14.498;2023-03-31T03:57:30;100564.16;;;8.80;100.00
46946;BME280;32679;40.810;14.498;2023-03-31T04:00:03;100555.69;;;8.77;100.00
46946;BME280;32679;40.810;14.498;2023-03-31T04:02:34;100552.13;;;8.76;100.00
46946;BME280;32679;40.810;14.498;2023-03-31T04:04:59;100549.16;;;8.93;100.00
46946;BME280;32679;40.810;14.498;2023-03-31T04:07:25;100549.44;;;9.01;100.00
46946;BME280;32679;40.810;14.498;2023-03-31T04:09:55;100548.00;;;8.95;100.00
46946;BME280;32679;40.810;14.498;2023-03-31T04:12:28;100544.16;;;8.87;100.00
46946;BME280;32679;40.810;14.498;2023-03-31T04:14:56;100542.56;;;8.86;100.00
46946;BME280;32679;40.810;14.498;2023-03-31T04:17:21;100541.53;;;8.90;100.00
46946;BME280;32679;40.810;14.498;2023-03-31T04:20:04;100544.25;;;8.78;100.00
46946;BME280;32679;40.810;14.498;2023-03-31T04:22:31;100538.91;;;8.73;100.00
46946;BME280;32679;40.810;14.498;2023-03-31T04:25:06;100536.50;;;8.72;100.00
46946;BME280;32679;40.810;14.498;2023-03-31T04:27:50;100531.66;;;8.69;100.00
46946;BME280;32679;40.810;14.498;2023-03-31T04:30:23;100531.06;;;8.75;100.00
46946;BME280;32679;40.810;14.498;2023-03-31T04:32:54;100526.84;;;8.90;100.00
46946;BME280;32679;40.810;14.498;2023-03-31T04:35:26;100509.59;;;8.84;100.00
46946;BME280;32679;40.810;14.498;2023-03-31T04:37:55;100498.50;;;8.84;100.00
46946;BME280;32679;40.810;14.498;2023-03-31T04:40:25;100498.63;;;8.88;100.00
46946;BME280;32679;40.810;14.498;2023-03-31T04:42:53;100494.00;;;8.92;100.00
46946;BME280;32679;40.810;14.498;2023-03-31T04:45:18;100495.25;;;8.95;100.00
46946;BME280;32679;40.810;14.498;2023-03-31T04:47:44;100488.59;;;8.96;100.00
46946;BME280;32679;40.810;14.498;2023-03-31T04:50:14;100480.38;;;8.99;100.00
46946;BME280;32679;40.810;14.498;2023-03-31T04:52:40;100471.44;;;8.93;100.00
46946;BME280;32679;40.810;14.498;2023-03-31T04:55:06;100478.06;;;9.01;100.00
46946;BME280;32679;40.810;14.498;2023-03-31T04:57:32;100488.38;;;9.01;100.00
46946;BME280;32679;40.810;14.498;2023-03-31T05:00:00;100488.38;;;9.01;100.00
46946;BME280;32679;40.810;14.498;2023-03-31T05:02:28;100490.22;;;9.09;100.00
46946;BME280;32679;40.810;14.498;2023-03-31T05:04:53;100483.28;;;9.27;100.00
46946;BME280;32679;40.810;14.498;2023-03-31T05:07:19;100477.94;;;9.71;100.00
46946;BME280;32679;40.810;14.498;2023-03-31T05:09:48;100467.28;;;10.13;100.00
46946;BME280;32679;40.810;14.498;2023-03-31T05:12:15;100479.22;;;10.70;100.00
46946;BME280;32679;40.810;14.498;2023-03-31T05:14:49;100481.44;;;11.24;97.51
46946;BME280;32679;40.810;14.498;2023-03-31T05:17:17;100489.47;;;11.61;93.21
46946;BME280;32679;40.810;14.498;2023-03-31T05:19:45;100481.97;;;11.80;91.73
46946;BME280;32679;40.810;14.498;2023-03-31T05:22:10;100491.00;;;12.28;88.45
46946;BME280;32679;40.810;14.498;2023-03-31T05:24:40;100490.53;;;12.65;86.35
46946;BME280;32679;40.810;14.498;2023-03-31T05:27:09;100494.81;;;12.59;83.84
46946;BME280;32679;40.810;14.498;2023-03-31T05:29:34;100496.72;;;12.55;83.67
46946;BME280;32679;40.810;14.498;2023-03-31T05:32:03;100512.25;;;12.95;84.26
46946;BME280;32679;40.810;14.498;2023-03-31T05:34:29;100521.75;;;13.59;79.90
46946;BME280;32679;40.810;14.498;2023-03-31T05:36:57;100522.09;;;13.57;78.65
46946;BME280;32679;40.810;14.498;2023-03-31T05:39:25;100511.06;;;13.91;79.46
46946;BME280;32679;40.810;14.498;2023-03-31T05:41:51;100518.97;;;14.15;78.19
46946;BME280;32679;40.810;14.498;2023-03-31T05:44:19;100512.75;;;14.97;74.10
46946;BME280;32679;40.810;14.498;2023-03-31T05:46:47;100512.13;;;15.58;70.30
46946;BME280;32679;40.810;14.498;2023-03-31T05:49:14;100516.19;;;16.23;68.29
46946;BME280;32679;40.810;14.498;2023-03-31T05:51:42;100509.19;;;16.72;65.21
46946;BME280;32679;40.810;14.498;2023-03-31T05:54:07;100512.91;;;17.15;62.87
46946;BME280;32679;40.810;14.498;2023-03-31T05:56:33;100518.16;;;17.63;60.48
46946;BME280;32679;40.810;14.498;2023-03-31T05:59:03;100522.94;;;17.95;58.22
46946;BME280;32679;40.810;14.498;2023-03-31T06:01:29;100524.53;;;18.06;56.54
46946;BME280;32679;40.810;14.498;2023-03-31T06:03:55;100523.28;;;18.32;56.07
46946;BME280;32679;40.810;14.498;2023-03-31T06:06:21;100526.69;;;18.83;55.93
46946;BME280;32679;40.810;14.498;2023-03-31T06:08:49;100526.56;;;19.08;53.50
46946;BME280;32679;40.810;14.498;2023-03-31T06:11:20;100517.91;;;19.33;50.19
46946;BME280;32679;40.810;14.498;2023-03-31T06:13:48;100522.53;;;18.07;53.37
46946;BME280;32679;40.810;14.498;2023-03-31T06:16:19;100506.84;;;17.99;55.00
46946;BME280;32679;40.810;14.498;2023-03-31T06:18:47;100520.13;;;17.95;54.58
46946;BME280;32679;40.810;14.498;2023-03-31T06:21:17;100510.94;;;17.80;55.49
46946;BME280;32679;40.810;14.498;2023-03-31T06:23:45;100511.69;;;17.20;57.67
46946;BME280;32679;40.810;14.498;2023-03-31T06:26:15;100511.72;;;17.80;55.65
46946;BME280;32679;40.810;14.498;2023-03-31T06:28:42;100512.53;;;17.63;55.41
46946;BME280;32679;40.810;14.498;2023-03-31T06:31:20;100513.16;;;18.42;53.29
46946;BME280;32679;40.810;14.498;2023-03-31T06:33:46;100509.78;;;18.79;54.15
46946;BME280;32679;40.810;14.498;2023-03-31T06:36:14;100504.16;;;19.38;50.45
46946;BME280;32679;40.810;14.498;2023-03-31T06:38:40;100511.84;;;19.34;50.61
46946;BME280;32679;40.810;14.498;2023-03-31T06:41:10;100505.44;;;19.79;49.32
46946;BME280;32679;40.810;14.498;2023-03-31T06:43:36;100517.88;;;19.88;48.93
46946;BME280;32679;40.810;14.498;2023-03-31T06:46:02;100501.28;;;19.91;49.03
46946;BME280;32679;40.810;14.498;2023-03-31T06:48:30;100504.06;;;19.98;48.39
46946;BME280;32679;40.810;14.498;2023-03-31T06:50:59;100502.72;;;19.68;48.72
46946;BME280;32679;40.810;14.498;2023-03-31T06:53:28;100503.91;;;19.19;50.88
46946;BME280;32679;40.810;14.498;2023-03-31T06:55:53;100509.19;;;19.65;48.81
46946;BME280;32679;40.810;14.498;2023-03-31T06:58:19;100514.94;;;20.33;46.77
46946;BME280;32679;40.810;14.498;2023-03-31T07:00:45;100517.03;;;20.63;47.39
46946;BME280;32679;40.810;14.498;2023-03-31T07:03:11;100521.41;;;20.99;45.05
46946;BME280;32679;40.810;14.498;2023-03-31T07:05:37;100523.47;;;20.95;45.49
46946;BME280;32679;40.810;14.498;2023-03-31T07:08:09;100516.47;;;21.03;44.91
46946;BME280;32679;40.810;14.498;2023-03-31T07:10:37;100511.41;;;20.60;45.28
46946;BME280;32679;40.810;14.498;2023-03-31T07:13:05;100510.81;;;21.57;43.26
46946;BME280;32679;40.810;14.498;2023-03-31T07:15:33;100513.81;;;21.19;41.86
46946;BME280;32679;40.810;14.498;2023-03-31T07:17:59;100508.31;;;20.51;43.40
46946;BME280;32679;40.810;14.498;2023-03-31T07:20:28;100516.50;;;19.59;46.41
46946;BME280;32679;40.810;14.498;2023-03-31T07:22:57;100516.44;;;19.10;48.38
46946;BME280;32679;40.810;14.498;2023-03-31T07:25:25;100514.66;;;18.75;50.63
46946;BME280;32679;40.810;14.498;2023-03-31T07:27:50;100512.69;;;19.28;48.27
46946;BME280;32679;40.810;14.498;2023-03-31T07:30:19;100513.84;;;18.75;48.13
46946;BME280;32679;40.810;14.498;2023-03-31T07:32:50;100521.13;;;18.62;48.36
46946;BME280;32679;40.810;14.498;2023-03-31T07:35:22;100525.53;;;18.73;47.66
46946;BME280;32679;40.810;14.498;2023-03-31T07:37:50;100518.81;;;19.19;47.89
46946;BME280;32679;40.810;14.498;2023-03-31T07:40:22;100506.84;;;19.56;47.61
46946;BME280;32679;40.810;14.498;2023-03-31T07:42:48;100496.09;;;19.37;46.61
46946;BME280;32679;40.810;14.498;2023-03-31T07:45:17;100501.25;;;18.97;48.94
46946;BME280;32679;40.810;14.498;2023-03-31T07:47:48;100491.00;;;18.48;49.82
46946;BME280;32679;40.810;14.498;2023-03-31T07:50:18;100502.06;;;17.64;51.35
46946;BME280;32679;40.810;14.498;2023-03-31T07:52:43;100506.06;;;17.88;51.33
46946;BME280;32679;40.810;14.498;2023-03-31T07:55:11;100505.28;;;17.73;51.32
46946;BME280;32679;40.810;14.498;2023-03-31T07:57:37;100505.97;;;18.30;51.51
46946;BME280;32679;40.810;14.498;2023-03-31T08:00:06;100499.59;;;19.00;48.90
46946;BME280;32679;40.810;14.498;2023-03-31T08:02:34;100510.66;;;18.62;49.55
46946;BME280;32679;40.810;14.498;2023-03-31T08:05:00;100493.53;;;19.01;47.51
46946;BME280;32679;40.810;14.498;2023-03-31T08:07:26;100508.16;;;19.41;46.38
46946;BME280;32679;40.810;14.498;2023-03-31T08:09:59;100512.84;;;19.06;46.73
46946;BME280;32679;40.810;14.498;2023-03-31T08:12:27;100516.66;;;19.37;46.07
46946;BME280;32679;40.810;14.498;2023-03-31T08:14:53;100511.28;;;19.54;44.64
46946;BME280;32679;40.810;14.498;2023-03-31T08:17:21;100495.13;;;19.58;45.61
46946;BME280;32679;40.810;14.498;2023-03-31T08:19:49;100496.91;;;19.37;46.93
46946;BME280;32679;40.810;14.498;2023-03-31T08:22:15;100487.13;;;19.98;44.55
46946;BME280;32679;40.810;14.498;2023-03-31T08:24:41;100485.72;;;20.51;43.66
46946;BME280;32679;40.810;14.498;2023-03-31T08:27:09;100485.28;;;20.52;43.65
46946;BME280;32679;40.810;14.498;2023-03-31T08:29:37;100487.56;;;20.30;44.34
46946;BME280;32679;40.810;14.498;2023-03-31T08:32:02;100493.03;;;20.75;43.69
46946;BME280;32679;40.810;14.498;2023-03-31T08:34:33;100502.34;;;21.03;42.29
46946;BME280;32679;40.810;14.498;2023-03-31T08:37:01;100495.53;;;21.00;42.59
46946;BME280;32679;40.810;14.498;2023-03-31T08:39:26;100496.28;;;21.55;42.03
46946;BME280;32679;40.810;14.498;2023-03-31T08:42:03;100509.81;;;22.14;40.47
46946;BME280;32679;40.810;14.498;2023-03-31T08:44:43;100503.06;;;23.04;38.79
46946;BME280;32679;40.810;14.498;2023-03-31T08:47:17;100489.50;;;23.27;37.06
46946;BME280;32679;40.810;14.498;2023-03-31T08:50:05;100489.72;;;24.15;35.34
46946;BME280;32679;40.810;14.498;2023-03-31T08:52:39;100481.19;;;23.69;35.07
46946;BME280;32679;40.810;14.498;2023-03-31T08:55:13;100482.59;;;22.76;35.30
46946;BME280;32679;40.810;14.498;2023-03-31T09:00:56;100479.13;;;23.53;32.61
46946;BME280;32679;40.810;14.498;2023-03-31T09:03:55;100477.81;;;23.42;31.30
46946;BME280;32679;40.810;14.498;2023-03-31T09:06:38;100470.34;;;23.32;32.57
46946;BME280;32679;40.810;14.498;2023-03-31T09:09:09;100472.13;;;22.73;32.42
46946;BME280;32679;40.810;14.498;2023-03-31T09:11:43;100463.13;;;21.79;34.98
46946;BME280;32679;40.810;14.498;2023-03-31T09:14:37;100474.00;;;22.43;35.56
46946;BME280;32679;40.810;14.498;2023-03-31T09:17:26;100466.72;;;22.22;37.45
46946;BME280;32679;40.810;14.498;2023-03-31T09:19:59;100468.03;;;21.51;38.44
46946;BME280;32679;40.810;14.498;2023-03-31T09:22:38;100462.91;;;20.31;41.53
46946;BME280;32679;40.810;14.498;2023-03-31T09:27:42;100469.94;;;21.81;39.37
46946;BME280;32679;40.810;14.498;2023-03-31T09:30:25;100466.78;;;21.76;38.29
46946;BME280;32679;40.810;14.498;2023-03-31T09:36:00;100461.06;;;21.79;40.09
46946;BME280;32679;40.810;14.498;2023-03-31T09:38:29;100455.19;;;21.47;41.15
46946;BME280;32679;40.810;14.498;2023-03-31T09:41:04;100449.78;;;21.32;41.87
46946;BME280;32679;40.810;14.498;2023-03-31T09:43:32;100450.44;;;21.13;43.39
46946;BME280;32679;40.810;14.498;2023-03-31T09:46:05;100445.81;;;21.50;42.38
46946;BME280;32679;40.810;14.498;2023-03-31T09:48:41;100450.19;;;21.54;42.48
46946;BME280;32679;40.810;14.498;2023-03-31T09:51:20;100446.44;;;21.61;43.30
46946;BME280;32679;40.810;14.498;2023-03-31T09:53:51;100423.81;;;21.37;43.78
46946;BME280;32679;40.810;14.498;2023-03-31T09:56:47;100428.38;;;21.31;44.02
46946;BME280;32679;40.810;14.498;2023-03-31T09:59:34;100419.34;;;21.13;43.59
46946;BME280;32679;40.810;14.498;2023-03-31T10:04:51;100413.41;;;21.31;43.89
46946;BME280;32679;40.810;14.498;2023-03-31T10:07:24;100413.56;;;21.67;42.33
46946;BME280;32679;40.810;14.498;2023-03-31T10:09:53;100409.75;;;21.54;42.48
46946;BME280;32679;40.810;14.498;2023-03-31T10:12:24;100400.16;;;21.24;40.57
46946;BME280;32679;40.810;14.498;2023-03-31T10:15:01;100399.88;;;21.42;40.22
46946;BME280;32679;40.810;14.498;2023-03-31T10:17:27;100401.13;;;21.61;40.23
46946;BME280;32679;40.810;14.498;2023-03-31T10:20:04;100379.03;;;20.55;43.17
46946;BME280;32679;40.810;14.498;2023-03-31T10:22:34;100380.31;;;20.50;44.42
46946;BME280;32679;40.810;14.498;2023-03-31T10:25:20;100377.00;;;20.82;43.30
46946;BME280;32679;40.810;14.498;2023-03-31T10:27:51;100368.44;;;21.36;42.79
46946;BME280;32679;40.810;14.498;2023-03-31T10:30:22;100367.53;;;20.92;43.73
46946;BME280;32679;40.810;14.498;2023-03-31T10:32:51;100356.97;;;20.73;45.69
46946;BME280;32679;40.810;14.498;2023-03-31T10:35:25;100363.50;;;20.93;45.69
46946;BME280;32679;40.810;14.498;2023-03-31T10:38:01;100372.72;;;20.98;45.68
46946;BME280;32679;40.810;14.498;2023-03-31T10:40:30;100361.09;;;21.15;44.97
46946;BME280;32679;40.810;14.498;2023-03-31T10:43:14;100364.84;;;20.85;44.11
46946;BME280;32679;40.810;14.498;2023-03-31T10:45:48;100368.09;;;20.84;44.22
46946;BME280;32679;40.810;14.498;2023-03-31T10:48:23;100372.34;;;20.72;44.14
46946;BME280;32679;40.810;14.498;2023-03-31T10:50:54;100370.50;;;20.58;44.07
46946;BME280;32679;40.810;14.498;2023-03-31T10:53:23;100360.16;;;20.75;43.51
46946;BME280;32679;40.810;14.498;2023-03-31T11:01:39;100345.06;;;20.58;43.41
46946;BME280;32679;40.810;14.498;2023-03-31T11:04:41;100337.22;;;20.42;44.13
46946;BME280;32679;40.810;14.498;2023-03-31T11:07:31;100330.81;;;20.38;45.29
46946;BME280;32679;40.810;14.498;2023-03-31T11:13:07;100312.69;;;20.09;46.93
46946;BME280;32679;40.810;14.498;2023-03-31T11:15:56;100317.59;;;20.32;47.55
46946;BME280;32679;40.810;14.498;2023-03-31T11:24:08;100302.81;;;20.75;46.84
46946;BME280;32679;40.810;14.498;2023-03-31T11:26:57;100305.44;;;20.85;46.34
46946;BME280;32679;40.810;14.498;2023-03-31T11:29:40;100302.34;;;21.23;45.61
46946;BME280;32679;40.810;14.498;2023-03-31T11:40:28;100281.72;;;21.66;42.14
46946;BME280;32679;40.810;14.498;2023-03-31T11:48:41;100270.00;;;20.30;33.52
46946;BME280;32679;40.810;14.498;2023-03-31T11:51:20;100269.13;;;20.60;30.77
46946;BME280;32679;40.810;14.498;2023-03-31T11:53:50;100261.19;;;20.99;30.17
46946;BME280;32679;40.810;14.498;2023-03-31T11:56:18;100226.72;;;20.84;31.36
46946;BME280;32679;40.810;14.498;2023-03-31T11:58:55;100255.41;;;21.06;32.19
46946;BME280;32679;40.810;14.498;2023-03-31T12:01:54;100245.03;;;20.76;33.67
46946;BME280;32679;40.810;14.498;2023-03-31T12:04:48;100209.75;;;20.84;31.40
46946;BME280;32679;40.810;14.498;2023-03-31T12:07:28;100230.75;;;21.26;27.59
46946;BME280;32679;40.810;14.498;2023-03-31T12:12:51;100227.22;;;21.78;27.51
46946;BME280;32679;40.810;14.498;2023-03-31T12:15:28;100217.66;;;21.72;27.23
46946;BME280;32679;40.810;14.498;2023-03-31T12:18:18;100214.06;;;21.52;28.71
46946;BME280;32679;40.810;14.498;2023-03-31T12:20:52;100193.69;;;21.21;29.39
46946;BME280;32679;40.810;14.498;2023-03-31T12:23:22;100190.56;;;21.55;29.61
46946;BME280;32679;40.810;14.498;2023-03-31T12:28:33;100180.97;;;21.09;29.64
46946;BME280;32679;40.810;14.498;2023-03-31T12:31:06;100184.69;;;21.06;29.62
46946;BME280;32679;40.810;14.498;2023-03-31T12:33:53;100180.03;;;20.96;29.89
46946;BME280;32679;40.810;14.498;2023-03-31T12:36:29;100167.59;;;21.29;30.01
46946;BME280;32679;40.810;14.498;2023-03-31T12:44:37;100149.34;;;20.74;36.27
46946;BME280;32679;40.810;14.498;2023-03-31T12:57:35;100120.38;;;20.00;43.27
46946;BME280;32679;40.810;14.498;2023-03-31T13:02:41;100114.97;;;20.32;43.64
46946;BME280;32679;40.810;14.498;2023-03-31T13:08:05;100112.09;;;20.79;44.03
46946;BME280;32679;40.810;14.498;2023-03-31T13:10:32;100096.66;;;20.17;44.38
46946;BME280;32679;40.810;14.498;2023-03-31T13:13:12;100094.31;;;20.35;44.44
46946;BME280;32679;40.810;14.498;2023-03-31T13:15:39;100102.13;;;20.04;46.14
46946;BME280;32679;40.810;14.498;2023-03-31T13:18:06;100105.13;;;20.17;46.78
46946;BME280;32679;40.810;14.498;2023-03-31T13:21:08;100106.84;;;20.11;47.63
46946;BME280;32679;40.810;14.498;2023-03-31T13:23:43;100090.75;;;20.08;46.60
46946;BME280;32679;40.810;14.498;2023-03-31T13:34:38;100100.94;;;19.78;49.40
46946;BME280;32679;40.810;14.498;2023-03-31T13:46:22;100099.75;;;19.49;50.72
46946;BME280;32679;40.810;14.498;2023-03-31T13:51:59;100094.25;;;19.38;51.92
46946;BME280;32679;40.810;14.498;2023-03-31T14:05:39;100052.91;;;19.55;51.19
46946;BME280;32679;40.810;14.498;2023-03-31T14:08:18;100068.63;;;19.83;51.69
46946;BME280;32679;40.810;14.498;2023-03-31T14:10:49;100062.41;;;19.68;50.86
46946;BME280;32679;40.810;14.498;2023-03-31T14:13:17;100054.03;;;19.34;51.40
46946;BME280;32679;40.810;14.498;2023-03-31T14:15:47;100058.88;;;19.33;51.33
46946;BME280;32679;40.810;14.498;2023-03-31T14:18:23;100053.22;;;19.06;52.28
46946;BME280;32679;40.810;14.498;2023-03-31T14:23:53;99996.06;;;18.75;52.56
46946;BME280;32679;40.810;14.498;2023-03-31T14:37:04;99998.47;;;19.31;52.38
46946;BME280;32679;40.810;14.498;2023-03-31T14:39:37;100003.19;;;19.37;51.83
46946;BME280;32679;40.810;14.498;2023-03-31T14:42:16;100009.22;;;19.40;52.58
46946;BME280;32679;40.810;14.498;2023-03-31T14:44:43;100010.41;;;19.15;52.65
46946;BME280;32679;40.810;14.498;2023-03-31T14:47:35;100001.81;;;18.65;54.66
46946;BME280;32679;40.810;14.498;2023-03-31T14:50:17;99979.69;;;18.32;56.49
46946;BME280;32679;40.810;14.498;2023-03-31T14:52:50;99991.53;;;18.17;57.02
46946;BME280;32679;40.810;14.498;2023-03-31T14:55:20;99981.44;;;18.16;56.49
46946;BME280;32679;40.810;14.498;2023-03-31T14:57:50;99967.94;;;18.00;57.99
46946;BME280;32679;40.810;14.498;2023-03-31T15:00:37;99973.81;;;17.78;58.82
46946;BME280;32679;40.810;14.498;2023-03-31T15:03:09;99967.81;;;17.76;59.22
46946;BME280;32679;40.810;14.498;2023-03-31T15:05:44;99968.31;;;17.61;59.67
46946;BME280;32679;40.810;14.498;2023-03-31T15:08:19;99967.16;;;17.58;60.03
46946;BME280;32679;40.810;14.498;2023-03-31T15:10:52;99967.63;;;17.49;60.72
46946;BME280;32679;40.810;14.498;2023-03-31T15:13:27;99958.91;;;17.37;60.93
46946;BME280;32679;40.810;14.498;2023-03-31T15:15:58;99950.91;;;17.32;61.10
46946;BME280;32679;40.810;14.498;2023-03-31T15:18:26;99942.78;;;17.41;61.44
46946;BME280;32679;40.810;14.498;2023-03-31T15:20:52;99948.34;;;17.48;62.10
46946;BME280;32679;40.810;14.498;2023-03-31T15:23:23;99951.19;;;17.44;62.09
46946;BME280;32679;40.810;14.498;2023-03-31T15:25:52;99948.53;;;17.26;62.44
46946;BME280;32679;40.810;14.498;2023-03-31T15:28:19;99932.03;;;17.28;62.32
46946;BME280;32679;40.810;14.498;2023-03-31T15:30:49;99927.16;;;17.36;62.93
46946;BME280;32679;40.810;14.498;2023-03-31T15:33:23;99929.25;;;17.25;63.35
46946;BME280;32679;40.810;14.498;2023-03-31T15:35:52;99929.16;;;17.36;62.70
46946;BME280;32679;40.810;14.498;2023-03-31T15:38:26;99922.75;;;17.35;62.83
46946;BME280;32679;40.810;14.498;2023-03-31T15:40:54;99928.81;;;17.30;62.98